Time;durP1;ratioP1;P1;durP2;ratioP2;P2;SDS_P1;SDS_P2;PMS_P1;PMS_P2;Temp;Humidity;BMP_temperature;BMP_pressure;BME280_temperature;BME280_humidity;BME280_pressure;Samples;Min_cycle;Max_cycle;Signal;HPM_P1;HPM_P2
2022/08/12 00:46:29;;;;;;;5.45;3.88;;;;;;;23.34;100.00;101130.75;5097031;28;20028;-81
2022/08/12 00:48:34;;;;;;;3.83;3.40;;;;;;;23.29;100.00;101124.84;5094295;28;20161;-81
2022/08/12 00:51:21;;;;;;;8.30;3.75;;;;;;;23.44;100.00;101129.22;5095253;28;20107;-81
2022/08/12 00:54:06;;;;;;;4.97;3.67;;;;;;;23.69;99.23;101127.63;5095942;28;20107;-81
2022/08/12 00:56:58;;;;;;;9.15;3.42;;;;;;;23.48;100.00;101124.53;5096570;28;20325;-81
2022/08/12 01:00:07;;;;;;;4.40;3.80;;;;;;;23.23;100.00;101125.22;5096301;28;20081;-81
2022/08/12 01:02:57;;;;;;;6.72;3.47;;;;;;;23.23;100.00;101130.56;5094118;28;20115;-81
2022/08/12 01:11:54;;;;;;;5.65;3.30;;;;;;;23.21;100.00;101126.28;5097575;28;20024;-80
2022/08/12 01:14:42;;;;;;;4.55;3.45;;;;;;;23.42;100.00;101124.06;5084630;28;20451;-80
2022/08/12 01:17:29;;;;;;;7.82;3.53;;;;;;;23.43;100.00;101123.97;5097554;28;20027;-81
2022/08/12 01:20:34;;;;;;;6.32;3.35;;;;;;;22.99;100.00;101126.72;5098614;28;20389;-82
2022/08/12 01:23:48;;;;;;;4.57;3.20;;;;;;;23.24;100.00;101128.78;5096056;28;20429;-81
2022/08/12 01:26:38;;;;;;;5.32;3.35;;;;;;;23.35;100.00;101112.91;5094146;28;20055;-81
2022/08/12 01:29:30;;;;;;;5.63;3.30;;;;;;;22.94;100.00;101128.84;5094028;28;20444;-81
2022/08/12 01:32:19;;;;;;;7.65;3.75;;;;;;;23.03;100.00;101122.91;5095038;28;20027;-81
2022/08/12 01:35:16;;;;;;;5.85;3.55;;;;;;;23.24;100.00;101121.59;5080384;28;20024;-81
2022/08/12 01:38:07;;;;;;;7.18;3.33;;;;;;;23.10;100.00;101126.06;5094014;28;20028;-81
2022/08/12 01:40:56;;;;;;;9.45;3.40;;;;;;;23.11;100.00;101114.44;5095562;28;20032;-81
2022/08/12 01:43:44;;;;;;;5.60;3.38;;;;;;;22.63;100.00;101114.78;5093753;28;20073;-80
2022/08/12 01:46:47;;;;;;;6.43;3.50;;;;;;;23.03;100.00;101117.56;5096527;28;20165;-80
2022/08/12 01:50:15;;;;;;;5.03;3.10;;;;;;;22.92;100.00;101113.84;5102103;28;20016;-81
2022/08/12 01:53:10;;;;;;;6.45;3.17;;;;;;;23.10;100.00;101113.56;5101017;28;20467;-80
2022/08/12 01:55:57;;;;;;;3.70;3.38;;;;;;;22.88;100.00;101113.19;5084743;28;20040;-80
2022/08/12 02:01:52;;;;;;;3.95;3.10;;;;;;;22.90;100.00;101111.28;5099233;28;20364;-81
2022/08/12 02:12:05;;;;;;;4.07;2.90;;;;;;;22.77;100.00;101107.66;5098481;28;20482;-80
2022/08/12 02:15:03;;;;;;;4.78;3.85;;;;;;;22.85;100.00;101107.16;5098103;28;20028;-81
2022/08/12 02:18:04;;;;;;;4.63;3.42;;;;;;;22.59;100.00;101108.75;5098058;28;20024;-81
2022/08/12 02:21:08;;;;;;;4.80;4.28;;;;;;;22.75;100.00;101111.38;5082984;28;20096;-81
2022/08/12 02:23:54;;;;;;;4.60;3.20;;;;;;;22.92;100.00;101111.19;5099078;28;20020;-81
2022/08/12 02:26:45;;;;;;;5.07;3.30;;;;;;;22.84;100.00;101109.00;5099742;28;20039;-80
2022/08/12 02:29:32;;;;;;;7.10;3.50;;;;;;;22.97;100.00;101107.28;5086087;28;20100;-80
2022/08/12 02:32:18;;;;;;;5.13;3.40;;;;;;;22.93;100.00;101104.88;5099179;28;20042;-80
2022/08/12 02:35:06;;;;;;;5.20;3.92;;;;;;;22.81;100.00;101098.47;5098864;28;20142;-80
2022/08/12 02:37:55;;;;;;;5.68;3.40;;;;;;;23.04;100.00;101099.72;5084652;28;20039;-80
2022/08/12 02:40:44;;;;;;;5.13;3.30;;;;;;;22.64;100.00;101097.78;5098335;28;20028;-80
2022/08/12 02:43:39;;;;;;;4.60;3.58;;;;;;;22.64;100.00;101100.47;5098055;28;20059;-80
2022/08/12 02:46:29;;;;;;;3.90;3.50;;;;;;;22.57;100.00;101097.31;5098064;28;20038;-80
2022/08/12 02:49:25;;;;;;;6.10;3.20;;;;;;;22.60;100.00;101105.16;5099297;28;20028;-80
2022/08/12 02:52:13;;;;;;;4.22;3.63;;;;;;;22.44;100.00;101101.66;5085744;28;20424;-79
2022/08/12 02:55:18;;;;;;;4.47;3.28;;;;;;;22.54;100.00;101097.50;5101014;28;20105;-79
2022/08/12 02:58:08;;;;;;;6.13;3.50;;;;;;;22.60;100.00;101104.28;5099974;28;20031;-79
2022/08/12 03:00:54;;;;;;;4.38;3.30;;;;;;;22.72;100.00;101106.19;5099631;28;20078;-79
2022/08/12 03:03:40;;;;;;;4.93;3.80;;;;;;;22.79;100.00;101100.38;5098231;28;20035;-80
2022/08/12 03:06:33;;;;;;;6.03;3.65;;;;;;;22.54;100.00;101094.81;5098721;28;20059;-80
2022/08/12 03:09:23;;;;;;;5.55;3.80;;;;;;;22.45;100.00;101098.03;5099641;28;20024;-79
2022/08/12 03:12:10;;;;;;;7.70;3.70;;;;;;;22.56;100.00;101097.41;5101318;28;20028;-79
2022/08/12 03:14:57;;;;;;;6.47;3.53;;;;;;;22.31;100.00;101103.31;5100208;28;20041;-80
2022/08/12 03:17:50;;;;;;;5.35;3.97;;;;;;;22.60;100.00;101102.47;5097199;28;20389;-79
2022/08/12 03:20:37;;;;;;;6.18;3.53;;;;;;;22.74;100.00;101094.47;5097118;28;20092;-80
2022/08/12 03:23:23;;;;;;;5.22;3.50;;;;;;;22.17;100.00;101099.75;5097702;28;20433;-80
2022/08/12 03:26:10;;;;;;;7.45;3.45;;;;;;;22.28;100.00;101103.53;5097420;28;20024;-79
2022/08/12 03:28:57;;;;;;;5.38;3.80;;;;;;;22.66;100.00;101096.75;5096727;28;20020;-80
2022/08/12 03:31:43;;;;;;;6.00;3.70;;;;;;;22.66;100.00;101103.88;5096796;28;20024;-80
2022/08/12 03:34:34;;;;;;;4.40;3.55;;;;;;;22.79;100.00;101100.38;5096841;28;20032;-80
2022/08/12 03:37:20;;;;;;;6.72;3.47;;;;;;;22.82;100.00;101102.88;5096491;28;20039;-80
2022/08/12 03:41:31;;;;;;;6.30;3.70;;;;;;;22.88;100.00;101099.84;5096789;28;20036;-80
2022/08/12 04:01:56;;;;;;;8.02;3.70;;;;;;;22.80;100.00;101110.13;5096477;28;20093;-80
2022/08/12 04:04:44;;;;;;;7.57;4.00;;;;;;;22.80;100.00;101111.94;5095959;28;20028;-80
2022/08/12 04:07:30;;;;;;;6.80;3.88;;;;;;;22.69;100.00;101104.59;5095728;28;20055;-80
2022/08/12 04:10:17;;;;;;;7.18;4.28;;;;;;;22.82;100.00;101102.00;5096053;28;20027;-80
2022/08/12 04:13:17;;;;;;;10.13;4.38;;;;;;;23.01;100.00;101105.25;5095595;28;20031;-80
2022/08/12 04:16:05;;;;;;;9.20;4.13;;;;;;;22.82;100.00;101102.00;5095540;28;20084;-80
2022/08/12 04:18:52;;;;;;;7.38;3.75;;;;;;;23.00;100.00;101095.53;5095755;28;20109;-80
2022/08/12 04:21:38;;;;;;;4.20;3.58;;;;;;;22.98;100.00;101100.09;5095864;28;20032;-80
2022/08/12 04:24:25;;;;;;;7.60;3.97;;;;;;;22.94;100.00;101099.44;5097196;28;20436;-80
2022/08/12 04:27:11;;;;;;;5.90;3.88;;;;;;;22.95;100.00;101101.16;5095852;28;20032;-79
2022/08/12 04:29:57;;;;;;;5.50;3.67;;;;;;;23.08;100.00;101094.06;5095307;28;20119;-80
2022/08/12 04:32:43;;;;;;;5.15;3.28;;;;;;;23.02;100.00;101105.16;5098465;28;20020;-81
2022/08/12 04:35:30;;;;;;;6.95;3.58;;;;;;;23.04;100.00;101097.94;5097482;28;20027;-81
2022/08/12 04:38:17;;;;;;;6.00;4.10;;;;;;;23.25;100.00;101101.94;5096432;28;20070;-80
2022/08/12 04:41:04;;;;;;;8.05;3.75;;;;;;;23.42;100.00;101092.81;5095886;28;20085;-80
2022/08/12 04:43:50;;;;;;;7.85;4.30;;;;;;;23.39;100.00;101091.22;5095174;28;20524;-80
2022/08/12 04:46:36;;;;;;;5.13;3.65;;;;;;;23.64;100.00;101092.28;5096223;28;20024;-80
2022/08/12 04:49:24;;;;;;;6.70;3.88;;;;;;;23.51;100.00;101094.94;5094967;28;20024;-80
2022/08/12 04:52:10;;;;;;;5.47;4.18;;;;;;;23.30;100.00;101089.13;5095254;28;20111;-80
2022/08/12 04:54:56;;;;;;;4.57;3.53;;;;;;;23.69;100.00;101095.53;5095015;28;20537;-80
2022/08/12 04:57:42;;;;;;;4.75;3.65;;;;;;;23.72;100.00;101085.50;5095086;28;20062;-80
2022/08/12 05:00:27;;;;;;;6.80;3.60;;;;;;;23.61;100.00;101097.84;5095038;28;20111;-80
2022/08/12 05:03:13;;;;;;;7.85;3.90;;;;;;;23.90;100.00;101096.81;5094895;28;20028;-81
2022/08/12 05:05:59;;;;;;;6.13;3.83;;;;;;;24.11;100.00;101106.13;5096633;28;20522;-80
2022/08/12 05:08:45;;;;;;;5.50;3.38;;;;;;;24.18;100.00;101104.75;5097691;28;20051;-80
2022/08/12 05:11:31;;;;;;;5.43;3.38;;;;;;;24.13;100.00;101099.69;5103907;28;20028;-81
2022/08/12 05:14:16;;;;;;;9.55;4.00;;;;;;;24.37;100.00;101100.72;5096726;28;20034;-80
2022/08/12 05:17:02;;;;;;;5.47;3.53;;;;;;;24.38;100.00;101105.09;5096195;28;20024;-80
2022/08/12 05:19:48;;;;;;;6.68;3.90;;;;;;;24.52;100.00;101109.50;5095781;28;20023;-80
2022/08/12 05:22:34;;;;;;;7.15;4.00;;;;;;;24.60;100.00;101118.75;5096996;28;20024;-80
2022/08/12 05:25:20;;;;;;;4.53;3.70;;;;;;;24.48;100.00;101118.72;5098627;28;20039;-80
2022/08/12 05:28:06;;;;;;;8.43;3.75;;;;;;;24.75;99.14;101125.75;5099841;28;20039;-81
2022/08/12 05:30:52;;;;;;;5.88;4.03;;;;;;;24.73;99.05;101121.47;5100312;28;20028;-80
2022/08/12 05:33:39;;;;;;;10.30;3.97;;;;;;;24.66;99.58;101118.34;5100389;28;20119;-80
2022/08/12 05:36:24;;;;;;;5.47;3.47;;;;;;;24.35;100.00;101124.03;5098971;28;20028;-80
2022/08/12 05:39:10;;;;;;;7.10;3.85;;;;;;;24.38;100.00;101126.53;5101267;28;20127;-80
2022/08/12 05:41:56;;;;;;;10.40;5.60;;;;;;;24.60;100.00;101128.59;5099645;28;20127;-81
2022/08/12 05:44:42;;;;;;;11.25;6.30;;;;;;;24.39;100.00;101130.06;5099779;27;20115;-81
2022/08/12 05:47:28;;;;;;;10.23;6.53;;;;;;;24.92;100.00;101130.81;5100335;28;20051;-79
2022/08/12 05:50:13;;;;;;;12.05;6.10;;;;;;;25.00;100.00;101132.94;5100108;28;20092;-80
2022/08/12 05:52:59;;;;;;;7.53;4.35;;;;;;;24.56;100.00;101133.31;5099711;28;20073;-81
2022/08/12 05:55:45;;;;;;;11.82;5.70;;;;;;;24.68;100.00;101128.97;5099884;28;20058;-79
2022/08/12 05:58:31;;;;;;;8.48;4.80;;;;;;;24.74;100.00;101136.56;5099789;28;20024;-80
2022/08/12 06:01:18;;;;;;;10.52;5.38;;;;;;;24.91;100.00;101139.78;5099702;28;20107;-80
2022/08/12 06:04:04;;;;;;;15.68;5.57;;;;;;;25.00;100.00;101133.78;5099165;28;20356;-81
2022/08/12 06:06:52;;;;;;;7.75;4.40;;;;;;;24.95;100.00;101135.09;5098699;28;20024;-80
2022/08/12 06:09:37;;;;;;;8.23;4.00;;;;;;;25.10;98.54;101123.25;5099455;28;20077;-80
2022/08/12 06:12:23;;;;;;;8.02;3.60;;;;;;;25.19;96.10;101133.38;5100773;28;20107;-80
2022/08/12 06:15:09;;;;;;;9.10;3.97;;;;;;;24.94;96.67;101125.31;5100497;28;20451;-81
2022/08/12 06:18:04;;;;;;;5.78;3.85;;;;;;;25.21;95.13;101129.59;5104750;28;20024;-83
2022/08/12 06:20:52;;;;;;;12.15;4.90;;;;;;;25.37;95.97;101124.88;5107631;27;20032;-82
2022/08/12 06:23:38;;;;;;;9.32;4.03;;;;;;;25.42;94.92;101119.16;5111661;27;20578;-82
2022/08/12 06:26:27;;;;;;;12.88;4.70;;;;;;;25.72;94.80;101119.63;5115097;28;20047;-81
2022/08/12 06:29:18;;;;;;;8.98;4.50;;;;;;;25.88;93.04;101117.53;5115123;28;20079;-80
2022/08/12 06:32:05;;;;;;;6.95;3.88;;;;;;;26.25;90.45;101111.13;5113607;28;20028;-80
2022/08/12 06:34:51;;;;;;;5.03;3.58;;;;;;;25.81;89.50;101119.81;5106987;28;20039;-80
2022/08/12 06:37:40;;;;;;;6.28;3.58;;;;;;;25.96;88.08;101113.31;5113828;28;20020;-80
2022/08/12 06:43:30;;;;;;;8.63;4.15;;;;;;;26.17;87.13;101116.22;5112770;28;20014;-80
2022/08/12 06:46:16;;;;;;;12.23;5.72;;;;;;;25.92;89.27;101125.22;5104405;28;20016;-81
2022/08/12 06:49:03;;;;;;;8.68;4.43;;;;;;;26.05;88.35;101119.84;5100977;28;20023;-80
2022/08/12 06:51:57;;;;;;;10.32;5.00;;;;;;;26.06;87.21;101122.41;5099717;28;20469;-81
2022/08/12 06:54:44;;;;;;;6.72;4.00;;;;;;;26.29;86.00;101126.03;5099561;28;20044;-79
2022/08/12 06:57:30;;;;;;;7.07;4.30;;;;;;;26.30;85.84;101120.56;5098361;28;20028;-81
2022/08/12 07:00:21;;;;;;;6.53;4.05;;;;;;;26.66;84.48;101116.91;5098549;28;20028;-80
2022/08/12 07:03:07;;;;;;;11.98;5.63;;;;;;;26.29;86.11;101121.50;5105021;28;20020;-80
2022/08/12 07:05:55;;;;;;;13.80;5.43;;;;;;;26.66;84.17;101124.97;5108061;28;20028;-80
2022/08/12 07:08:42;;;;;;;8.98;4.88;;;;;;;26.38;84.59;101118.16;5094133;28;20028;-80
2022/08/12 07:11:29;;;;;;;11.05;4.47;;;;;;;26.37;85.16;101124.47;5110147;28;20028;-80
2022/08/12 07:14:15;;;;;;;5.63;4.35;;;;;;;26.49;84.08;101130.75;5107523;28;20031;-80
2022/08/12 07:17:02;;;;;;;7.15;4.30;;;;;;;26.40;86.44;101120.72;5104405;28;20042;-82
2022/08/12 07:19:48;;;;;;;5.90;4.50;;;;;;;26.88;82.38;101128.53;5095356;28;20032;-80
2022/08/12 07:22:34;;;;;;;7.32;4.70;;;;;;;27.12;81.58;101134.69;5093361;28;20020;-79
2022/08/12 07:25:29;;;;;;;8.60;5.07;;;;;;;27.31;80.05;101124.22;5104265;28;20024;-80
2022/08/12 07:28:24;;;;;;;9.00;5.00;;;;;;;27.57;80.71;101124.78;5105548;28;20096;-80
2022/08/12 07:31:11;;;;;;;5.80;4.53;;;;;;;27.32;80.86;101120.53;5099469;28;20028;-80
2022/08/12 07:33:58;;;;;;;7.50;4.80;;;;;;;27.22;80.85;101122.25;5085368;28;20035;-80
2022/08/12 07:36:46;;;;;;;8.95;5.10;;;;;;;27.02;80.61;101119.41;5106346;28;20028;-81
2022/08/12 07:39:34;;;;;;;16.83;5.97;;;;;;;27.33;79.55;101119.53;5101373;28;20309;-80
2022/08/12 07:42:20;;;;;;;9.45;5.20;;;;;;;27.65;77.97;101108.88;5105300;28;20024;-79
2022/08/12 07:45:08;;;;;;;7.63;4.70;;;;;;;27.84;76.80;101116.31;5108171;28;20030;-80
2022/08/12 07:47:54;;;;;;;8.63;4.60;;;;;;;28.24;76.48;101117.41;5094852;28;20024;-80
2022/08/12 07:50:39;;;;;;;5.32;4.38;;;;;;;28.70;75.55;101110.69;5110572;28;20039;-81
2022/08/12 07:53:25;;;;;;;7.35;4.10;;;;;;;28.76;73.43;101115.53;5112192;28;20031;-80
2022/08/12 07:56:11;;;;;;;6.10;3.95;;;;;;;29.01;69.34;101115.13;5108938;28;20027;-81
2022/08/12 07:58:57;;;;;;;6.50;3.72;;;;;;;28.81;71.18;101113.28;5100771;28;20122;-80
2022/08/12 08:01:43;;;;;;;5.10;4.00;;;;;;;28.82;72.72;101106.91;5085462;28;20042;-81
2022/08/12 08:07:34;;;;;;;5.50;4.28;;;;;;;29.38;67.88;101113.59;5102615;28;20028;-80
2022/08/12 08:10:19;;;;;;;9.38;4.40;;;;;;;29.05;68.37;101113.88;5099148;28;20077;-80
2022/08/12 08:13:07;;;;;;;6.97;4.32;;;;;;;29.26;67.16;101114.69;5097803;28;20028;-81
2022/08/12 08:15:55;;;;;;;4.90;4.40;;;;;;;29.16;67.08;101116.47;5101563;28;20111;-79
2022/08/12 08:18:41;;;;;;;7.00;4.20;;;;;;;29.38;64.77;101118.13;5096970;28;20452;-80
2022/08/12 08:21:28;;;;;;;7.53;4.15;;;;;;;29.45;62.62;101108.50;5098283;28;20111;-80
2022/08/12 08:24:14;;;;;;;5.30;3.85;;;;;;;29.96;60.10;101101.09;5085424;28;20027;-80
2022/08/12 08:26:59;;;;;;;4.72;3.95;;;;;;;30.26;57.97;101107.25;5098544;28;20028;-80
2022/08/12 08:29:45;;;;;;;6.53;4.30;;;;;;;30.20;57.56;101101.56;5097895;28;20089;-79
2022/08/12 08:32:31;;;;;;;8.98;5.15;;;;;;;30.19;56.52;101097.16;5098954;28;20020;-80
2022/08/12 08:35:18;;;;;;;6.43;3.90;;;;;;;30.76;54.21;101105.22;5085425;28;20027;-80
2022/08/12 08:38:13;;;;;;;7.80;4.13;;;;;;;30.56;55.21;101112.50;5085595;28;20043;-81
2022/08/12 08:44:04;;;;;;;5.88;3.97;;;;;;;30.61;52.81;101096.66;5099313;28;20049;-80
2022/08/12 08:46:50;;;;;;;4.30;3.63;;;;;;;31.03;53.17;101098.00;5096590;28;20049;-81
2022/08/12 08:49:37;;;;;;;3.63;3.30;;;;;;;31.18;53.02;101095.69;5098563;28;20031;-80
2022/08/12 08:52:24;;;;;;;6.40;3.70;;;;;;;31.12;52.23;101099.84;5099773;28;20068;-80
2022/08/12 08:55:12;;;;;;;4.68;3.60;;;;;;;30.76;53.17;101095.25;5101640;28;20105;-80
2022/08/12 08:57:58;;;;;;;5.63;3.80;;;;;;;30.93;52.78;101080.09;5106395;28;20084;-81
2022/08/12 09:00:46;;;;;;;4.50;3.70;;;;;;;31.07;52.08;101088.56;5104920;28;20028;-81
2022/08/12 09:03:35;;;;;;;5.28;3.53;;;;;;;31.08;51.77;101082.19;5105908;28;20106;-80
2022/08/12 09:06:22;;;;;;;6.75;3.67;;;;;;;31.25;52.03;101069.72;5104718;28;20053;-79
2022/08/12 09:09:09;;;;;;;5.60;3.75;;;;;;;31.44;51.28;101066.91;5102050;28;20341;-81
2022/08/12 09:14:59;;;;;;;5.45;3.55;;;;;;;31.11;51.22;101062.91;5103458;28;20021;-80
2022/08/12 09:17:54;;;;;;;9.27;3.95;;;;;;;31.26;51.46;101064.16;5088566;28;20120;-80
2022/08/12 09:20:42;;;;;;;5.53;3.55;;;;;;;30.52;53.60;101062.38;5099651;28;20027;-80
2022/08/12 09:23:27;;;;;;;6.30;3.53;;;;;;;31.97;50.64;101065.13;5101232;28;20032;-80
2022/08/12 09:26:14;;;;;;;5.95;4.18;;;;;;;31.85;50.80;101055.53;5105675;28;20039;-84
2022/08/12 09:29:01;;;;;;;7.95;3.90;;;;;;;32.01;48.84;101054.84;5108919;28;20054;-81
2022/08/12 09:31:46;;;;;;;9.70;3.90;;;;;;;31.81;49.84;101056.84;5093225;28;20085;-85
2022/08/12 09:34:35;;;;;;;4.35;3.50;;;;;;;30.67;53.40;101049.25;5094650;28;20031;-83
2022/08/12 09:37:23;;;;;;;4.78;3.85;;;;;;;31.34;51.63;101052.59;5107988;28;20112;-80
2022/08/12 09:40:09;;;;;;;4.93;3.80;;;;;;;31.45;51.38;101046.09;5094592;28;20024;-83
2022/08/12 09:46:01;;;;;;;8.55;3.97;;;;;;;31.52;51.46;101033.63;5104244;28;20016;-81
2022/08/12 09:48:47;;;;;;;6.07;3.92;;;;;;;31.08;53.18;101035.28;5101747;28;20107;-79
2022/08/12 09:51:33;;;;;;;6.05;4.00;;;;;;;30.44;52.17;101024.41;5088345;28;20028;-80
2022/08/12 09:54:20;;;;;;;11.30;3.60;;;;;;;30.54;53.23;101027.91;5100767;28;20427;-80
2022/08/12 09:57:10;;;;;;;6.07;3.75;;;;;;;30.71;51.99;101020.94;5085168;28;20016;-80
2022/08/12 09:59:56;;;;;;;7.45;3.75;;;;;;;31.21;51.88;101006.88;5101397;28;20341;-80
2022/08/12 10:03:09;;;;;;;5.15;3.60;;;;;;;31.63;50.33;101007.19;5099652;28;20067;-80
2022/08/12 10:05:55;;;;;;;5.25;4.10;;;;;;;31.28;50.60;101013.41;5090732;28;20085;-80
2022/08/12 10:08:40;;;;;;;8.32;6.55;;;;;;;31.04;51.08;100998.69;5087202;28;20035;-81
2022/08/12 10:14:31;;;;;;;6.72;4.10;;;;;;;31.73;50.26;100999.00;5104245;28;20024;-81
2022/08/12 10:17:21;;;;;;;5.40;3.50;;;;;;;31.58;48.77;100995.09;5104254;28;20036;-81
2022/08/12 10:20:07;;;;;;;4.60;3.80;;;;;;;31.28;48.24;100988.19;5104000;28;20053;-80
2022/08/12 10:23:00;;;;;;;6.50;3.78;;;;;;;31.10;49.44;100980.00;5086022;28;20059;-80
2022/08/12 10:31:55;;;;;;;5.72;4.00;;;;;;;31.56;48.66;100979.00;5104986;28;20065;-81
2022/08/12 10:34:41;;;;;;;5.10;3.50;;;;;;;31.21;47.43;100981.63;5084695;28;20055;-80
2022/08/12 10:37:27;;;;;;;4.35;3.78;;;;;;;30.76;49.07;100976.19;5098280;28;20491;-80
2022/08/12 10:40:13;;;;;;;4.95;3.30;;;;;;;30.97;48.79;100973.22;5099675;28;20046;-80
2022/08/12 10:46:06;;;;;;;5.40;3.88;;;;;;;31.83;46.01;100983.50;5099925;28;20032;-80
2022/08/12 10:48:52;;;;;;;5.22;3.85;;;;;;;31.79;46.76;100974.00;5100455;28;20035;-81
2022/08/12 10:51:39;;;;;;;3.92;3.53;;;;;;;31.56;45.93;100973.59;5070721;28;20125;-80
2022/08/12 10:54:26;;;;;;;5.43;3.90;;;;;;;31.76;46.81;100969.72;5099494;28;20048;-81
2022/08/12 10:57:11;;;;;;;6.13;4.10;;;;;;;32.01;46.03;100976.22;5100559;28;20407;-81
2022/08/12 10:59:58;;;;;;;6.47;3.80;;;;;;;32.09;45.98;100976.25;5099869;28;20084;-80
2022/08/12 11:02:55;;;;;;;5.35;3.45;;;;;;;32.20;45.71;100976.00;5101573;28;20087;-81
2022/08/12 11:05:41;;;;;;;4.78;3.70;;;;;;;31.83;46.15;100961.84;5102550;28;20035;-81
2022/08/12 11:08:26;;;;;;;6.32;3.70;;;;;;;32.25;45.35;100968.25;5087572;28;20031;-81
2022/08/12 11:11:16;;;;;;;41.60;20.95;;;;;;;32.15;44.27;100959.38;5101147;28;20048;-81
2022/08/12 11:14:02;;;;;;;100.82;48.97;;;;;;;32.45;44.27;100964.34;5097872;28;20028;-80
2022/08/12 11:16:48;;;;;;;7.93;4.57;;;;;;;32.07;43.66;100960.19;5099720;28;20047;-80
2022/08/12 11:19:35;;;;;;;4.78;3.80;;;;;;;32.12;43.93;100954.25;5098986;28;20043;-80
2022/08/12 11:22:21;;;;;;;5.10;3.70;;;;;;;32.68;43.00;100954.63;5097835;28;20035;-79
2022/08/12 11:25:08;;;;;;;6.35;3.50;;;;;;;32.39;42.39;100955.00;5099565;28;20020;-80
2022/08/12 11:27:55;;;;;;;5.18;3.42;;;;;;;32.35;42.31;100952.75;5099851;28;20113;-80
2022/08/12 11:30:41;;;;;;;4.18;3.10;;;;;;;32.74;41.45;100952.13;5097686;28;20337;-81
2022/08/12 11:33:27;;;;;;;4.13;3.63;;;;;;;31.87;42.57;100938.81;5084071;28;20460;-81
2022/08/12 11:36:13;;;;;;;10.57;3.50;;;;;;;32.44;41.95;100935.50;5099679;28;20028;-81
2022/08/12 11:38:59;;;;;;;4.00;3.22;;;;;;;32.85;41.54;100937.44;5097807;28;20031;-80
2022/08/12 11:41:44;;;;;;;3.90;3.00;;;;;;;33.22;40.82;100927.88;5086019;28;20357;-81
2022/08/12 11:44:30;;;;;;;3.67;3.20;;;;;;;32.93;40.79;100923.88;5102950;28;20117;-80
2022/08/12 11:47:16;;;;;;;5.35;3.20;;;;;;;33.39;39.66;100917.94;5101922;28;20047;-79
2022/08/12 11:50:02;;;;;;;5.18;3.53;;;;;;;32.97;39.71;100919.81;5099385;28;20340;-81
2022/08/12 11:52:49;;;;;;;5.18;3.30;;;;;;;33.88;38.95;100912.38;5096280;28;20428;-81
2022/08/12 11:55:35;;;;;;;6.07;3.15;;;;;;;32.11;40.09;100922.75;5100355;28;20105;-80
2022/08/12 11:58:21;;;;;;;5.55;3.40;;;;;;;33.43;38.73;100916.56;5097777;28;20024;-80
2022/08/12 12:01:07;;;;;;;5.40;3.22;;;;;;;33.15;38.21;100906.97;5096468;28;20051;-81
2022/08/12 12:03:52;;;;;;;6.18;3.15;;;;;;;33.64;37.91;100903.31;5097530;28;20035;-81
2022/08/12 12:06:38;;;;;;;7.20;3.45;;;;;;;34.25;36.67;100907.19;5096673;28;20088;-80
2022/08/12 12:09:25;;;;;;;4.80;3.22;;;;;;;33.33;37.03;100900.44;5098003;28;20066;-81
2022/08/12 12:12:11;;;;;;;5.88;3.30;;;;;;;33.39;37.86;100905.16;5099363;28;20032;-80
2022/08/12 12:14:57;;;;;;;3.72;3.20;;;;;;;33.42;37.20;100896.69;5098603;28;20388;-80
2022/08/12 12:17:43;;;;;;;4.68;3.20;;;;;;;33.56;37.07;100897.88;5082455;28;20024;-80
2022/08/12 12:20:30;;;;;;;5.28;3.45;;;;;;;33.41;37.15;100891.41;5100770;28;20103;-81
2022/08/12 12:23:16;;;;;;;5.60;4.00;;;;;;;33.77;37.20;100890.94;5086512;28;20043;-80
2022/08/12 12:26:04;;;;;;;4.10;2.90;;;;;;;33.78;36.39;100886.31;5089024;28;20047;-80
2022/08/12 12:28:49;;;;;;;3.47;3.17;;;;;;;34.14;35.98;100884.94;5100793;28;20039;-80
2022/08/12 12:31:35;;;;;;;3.45;3.03;;;;;;;33.98;35.19;100879.53;5101430;28;20016;-81
2022/08/12 12:34:21;;;;;;;7.38;3.25;;;;;;;33.41;36.04;100877.84;5087127;28;20039;-81
2022/08/12 12:37:11;;;;;;;7.00;3.40;;;;;;;33.54;35.64;100883.59;5084408;28;20452;-81
2022/08/12 12:39:57;;;;;;;6.47;3.00;;;;;;;33.67;36.37;100879.34;5100022;28;20078;-81
2022/08/12 12:42:43;;;;;;;10.95;3.45;;;;;;;33.69;35.86;100873.75;5085226;28;20024;-81
2022/08/12 12:45:31;;;;;;;5.03;3.30;;;;;;;33.41;35.55;100866.97;5095653;28;20448;-80
2022/08/12 12:48:18;;;;;;;4.32;3.17;;;;;;;33.61;36.35;100865.59;5097893;28;20065;-80
2022/08/12 12:51:16;;;;;;;3.70;3.40;;;;;;;33.87;35.33;100867.13;5098749;28;20039;-81
2022/08/12 12:54:02;;;;;;;4.88;3.65;;;;;;;33.89;35.41;100858.81;5099908;28;20055;-81
2022/08/12 12:56:50;;;;;;;7.20;3.33;;;;;;;33.69;35.51;100862.88;5098651;28;20020;-79
2022/08/12 13:00:13;;;;;;;7.00;3.55;;;;;;;33.38;36.46;100857.28;5099348;28;20421;-82
2022/08/12 13:02:51;;;;;;;6.20;3.53;;;;;;;33.44;36.46;100848.47;5101185;28;20055;-84
2022/08/12 13:05:40;;;;;;;7.25;3.75;;;;;;;33.30;36.45;100853.72;5082664;28;20020;-80
2022/08/12 13:08:29;;;;;;;5.32;3.38;;;;;;;32.95;35.63;100845.84;5081263;28;20036;-80
2022/08/12 13:11:15;;;;;;;5.75;3.40;;;;;;;33.31;36.53;100839.09;5095935;28;20035;-82
2022/08/12 13:14:01;;;;;;;5.10;3.65;;;;;;;33.03;36.88;100830.41;5094978;28;20071;-80
2022/08/12 13:16:47;;;;;;;4.95;3.90;;;;;;;33.16;36.88;100832.63;5094974;28;20329;-79
2022/08/12 13:19:37;;;;;;;6.05;3.60;;;;;;;33.37;36.58;100833.88;5094557;28;20036;-80
2022/08/12 13:22:22;;;;;;;8.15;3.22;;;;;;;33.40;35.96;100825.38;5093751;28;20028;-80
2022/08/12 13:25:08;;;;;;;6.13;4.30;;;;;;;33.08;36.17;100824.47;5094427;28;20372;-81
2022/08/12 13:27:54;;;;;;;7.05;3.80;;;;;;;33.33;36.27;100824.34;5095476;28;20089;-80
2022/08/12 13:30:40;;;;;;;5.72;3.90;;;;;;;33.10;36.22;100822.47;5094594;28;20020;-80
2022/08/12 13:33:27;;;;;;;7.78;3.85;;;;;;;33.43;36.29;100814.16;5079417;28;20060;-81
2022/08/12 13:36:15;;;;;;;8.07;3.80;;;;;;;33.58;36.26;100828.75;5094800;28;20524;-80
2022/08/12 13:39:00;;;;;;;4.57;3.80;;;;;;;33.50;35.44;100831.47;5094597;28;20027;-81
2022/08/12 13:41:46;;;;;;;7.30;4.30;;;;;;;33.21;35.43;100825.69;5096338;28;20063;-80
2022/08/12 13:44:32;;;;;;;6.47;4.38;;;;;;;33.32;35.02;100819.09;5098991;28;20028;-80
2022/08/12 13:47:23;;;;;;;6.45;4.40;;;;;;;33.56;34.39;100819.06;5098744;28;20040;-80
2022/08/12 13:50:09;;;;;;;6.75;3.97;;;;;;;33.73;35.14;100818.03;5099055;28;20107;-80
2022/08/12 13:52:55;;;;;;;4.93;3.75;;;;;;;33.23;36.15;100814.66;5098629;28;20081;-80
2022/08/12 13:55:46;;;;;;;6.47;4.07;;;;;;;33.53;35.75;100812.13;5098213;28;20040;-81
2022/08/12 13:58:50;;;;;;;6.57;3.90;;;;;;;33.30;36.14;100804.81;5098848;28;20529;-80
2022/08/12 14:01:36;;;;;;;6.13;3.90;;;;;;;33.09;36.36;100801.72;5098269;28;20101;-80
2022/08/12 14:04:22;;;;;;;9.65;4.20;;;;;;;33.14;37.02;100805.63;5082100;28;20047;-80
2022/08/12 14:07:08;;;;;;;6.88;4.00;;;;;;;33.17;36.43;100813.44;5098337;28;20039;-80
2022/08/12 14:10:39;;;;;;;9.13;4.55;;;;;;;33.02;36.61;100798.84;5097395;28;20024;-81
2022/08/12 14:13:00;;;;;;;10.73;4.45;;;;;;;33.18;35.69;100789.88;5094075;28;20055;-80
2022/08/12 14:15:48;;;;;;;11.00;4.13;;;;;;;33.04;36.67;100801.38;5083677;28;20016;-80
2022/08/12 14:18:37;;;;;;;4.75;4.13;;;;;;;32.94;35.75;100806.16;5097967;28;20027;-81
2022/08/12 14:21:27;;;;;;;7.72;4.50;;;;;;;33.02;35.92;100798.84;5097867;28;20031;-80
2022/08/12 14:24:13;;;;;;;9.73;4.82;;;;;;;33.04;36.39;100798.66;5097321;28;20043;-80
2022/08/12 14:26:59;;;;;;;6.70;4.28;;;;;;;32.98;36.30;100797.47;5097484;28;20035;-80
2022/08/12 14:29:45;;;;;;;11.10;4.15;;;;;;;32.86;36.27;100787.94;5097578;28;20533;-80
2022/08/12 14:32:34;;;;;;;9.40;4.20;;;;;;;32.91;35.67;100784.75;5096940;28;20434;-80
2022/08/12 14:35:19;;;;;;;7.28;4.22;;;;;;;32.64;36.52;100788.56;5096889;28;20026;-81
2022/08/12 14:38:20;;;;;;;10.02;4.15;;;;;;;32.66;36.97;100791.94;5082315;28;20034;-80
2022/08/12 14:41:08;;;;;;;4.35;3.95;;;;;;;32.78;36.85;100787.06;5098229;28;20038;-81
2022/08/12 14:43:54;;;;;;;5.50;4.20;;;;;;;32.90;36.57;100788.50;5097160;28;20218;-81
2022/08/12 14:46:42;;;;;;;9.05;4.50;;;;;;;33.21;36.71;100779.50;5096383;28;20329;-82